createdAt,value
2023-11-14T00:01:14.098Z,18.88
2023-11-14T00:03:40.725Z,19.13
2023-11-14T00:06:07.459Z,19.73
2023-11-14T00:08:34.005Z,21.02
2023-11-14T00:11:00.696Z,20.67
2023-11-14T00:13:27.367Z,18.92
2023-11-14T00:15:54.231Z,17.98
2023-11-14T00:18:20.894Z,19.77
2023-11-14T00:20:47.552Z,18.42
2023-11-14T00:23:14.106Z,18.00
2023-11-14T00:25:40.944Z,21.67
2023-11-14T00:28:08.846Z,18.50
2023-11-14T00:30:35.412Z,18.33
2023-11-14T00:33:02.342Z,17.55
2023-11-14T00:35:28.903Z,18.20
2023-11-14T00:37:55.780Z,15.65
2023-11-14T00:40:25.122Z,18.17
2023-11-14T00:42:51.641Z,15.20
2023-11-14T00:45:18.183Z,16.08
2023-11-14T00:47:45.041Z,17.35
2023-11-14T00:50:13.283Z,22.00
2023-11-14T00:52:39.850Z,18.65
2023-11-14T00:55:08.201Z,18.95
2023-11-14T00:57:34.700Z,15.45
2023-11-14T01:00:01.257Z,17.05
2023-11-14T01:02:28.069Z,21.73
2023-11-14T01:04:54.801Z,20.40
2023-11-14T01:07:21.473Z,18.33
2023-11-14T01:09:48.052Z,19.90
2023-11-14T01:12:14.668Z,16.70
2023-11-14T01:14:41.287Z,16.73
2023-11-14T01:17:08.233Z,22.55
2023-11-14T01:19:41.993Z,17.38
2023-11-14T01:22:08.993Z,15.73
2023-11-14T01:24:35.619Z,14.60
2023-11-14T01:27:03.680Z,14.38
2023-11-14T01:29:30.207Z,15.13
2023-11-14T01:31:56.804Z,15.60
2023-11-14T01:34:24.353Z,16.42
2023-11-14T01:36:52.438Z,18.65
2023-11-14T01:39:18.978Z,17.23
2023-11-14T01:41:46.281Z,15.75
2023-11-14T01:44:12.887Z,15.63
2023-11-14T01:46:39.977Z,16.38
2023-11-14T01:49:06.912Z,16.60
2023-11-14T01:51:34.274Z,17.15
2023-11-14T01:54:02.695Z,16.95
2023-11-14T01:56:30.128Z,17.77
2023-11-14T01:58:57.839Z,17.02
2023-11-14T02:01:25.453Z,15.40
2023-11-14T02:03:52.412Z,15.50
2023-11-14T02:06:18.920Z,15.63
2023-11-14T02:08:45.658Z,16.92
2023-11-14T02:11:12.336Z,17.35
2023-11-14T02:13:40.015Z,16.48
2023-11-14T02:16:06.927Z,16.08
2023-11-14T02:18:33.502Z,17.30
2023-11-14T02:21:00.091Z,16.05
2023-11-14T02:23:29.997Z,17.40
2023-11-14T02:25:57.427Z,15.05
2023-11-14T02:28:24.029Z,16.17
2023-11-14T02:30:50.735Z,12.02
2023-11-14T02:33:17.406Z,17.13
2023-11-14T02:35:44.145Z,16.05
2023-11-14T02:38:11.138Z,15.00
2023-11-14T02:40:38.532Z,13.50
2023-11-14T02:43:05.351Z,13.52
2023-11-14T02:45:32.125Z,14.82
2023-11-14T02:47:58.817Z,14.57
2023-11-14T02:50:43.610Z,14.30
2023-11-14T02:53:10.480Z,15.25
2023-11-14T02:55:37.127Z,13.77
2023-11-14T02:58:03.642Z,13.85
2023-11-14T03:00:30.792Z,12.48
2023-11-14T03:02:57.329Z,12.00
2023-11-14T03:05:23.836Z,15.73
2023-11-14T03:07:50.353Z,12.57
2023-11-14T03:10:16.969Z,10.35
2023-11-14T03:12:43.497Z,12.70
2023-11-14T03:15:10.919Z,12.60
2023-11-14T03:17:37.567Z,13.27
2023-11-14T03:20:05.546Z,12.85
2023-11-14T03:22:32.061Z,14.13
2023-11-14T03:24:58.612Z,12.90
2023-11-14T03:27:25.108Z,13.73
2023-11-14T03:29:52.036Z,13.50
2023-11-14T03:32:18.622Z,14.63
2023-11-14T03:34:45.246Z,10.88
2023-11-14T03:37:11.716Z,14.38
2023-11-14T03:39:41.030Z,10.75
2023-11-14T03:42:07.628Z,14.55
2023-11-14T03:44:34.236Z,11.10
2023-11-14T03:47:00.748Z,13.25
2023-11-14T03:49:27.249Z,13.73
2023-11-14T03:51:53.792Z,10.52
2023-11-14T03:54:20.292Z,15.27
2023-11-14T03:56:46.800Z,10.52
2023-11-14T03:59:13.294Z,13.57
2023-11-14T04:01:39.897Z,14.32
2023-11-14T04:04:06.584Z,11.27
2023-11-14T04:06:33.120Z,14.13
2023-11-14T04:08:59.779Z,14.02
2023-11-14T04:11:26.326Z,11.68
2023-11-14T04:13:52.865Z,22.50
2023-11-14T04:16:20.833Z,13.43
2023-11-14T04:18:47.508Z,13.40
2023-11-14T04:21:20.550Z,13.95
2023-11-14T04:23:47.813Z,10.95
2023-11-14T04:26:15.973Z,13.18
2023-11-14T04:28:42.741Z,13.57
2023-11-14T04:31:09.738Z,13.00
2023-11-14T04:33:36.292Z,11.40
2023-11-14T04:36:03.002Z,12.15
2023-11-14T04:38:29.507Z,10.35
2023-11-14T04:40:56.075Z,11.77
2023-11-14T04:43:22.614Z,12.50
2023-11-14T04:45:49.155Z,10.57
2023-11-14T04:48:15.888Z,11.93
2023-11-14T04:50:42.402Z,8.15
2023-11-14T04:53:09.739Z,10.07
2023-11-14T04:55:37.901Z,9.25
2023-11-14T04:58:04.815Z,9.20
2023-11-14T05:00:31.418Z,9.27
2023-11-14T05:02:58.025Z,11.65
2023-11-14T05:05:25.544Z,7.75
2023-11-14T05:07:52.207Z,9.30
2023-11-14T05:10:19.025Z,9.20
2023-11-14T05:12:45.531Z,9.85
2023-11-14T05:15:12.237Z,8.02
2023-11-14T05:17:40.551Z,10.10
2023-11-14T05:20:08.366Z,9.35
2023-11-14T05:22:35.167Z,14.30
2023-11-14T05:25:01.730Z,10.18
2023-11-14T05:27:28.655Z,11.52
2023-11-14T05:29:56.437Z,9.82
2023-11-14T05:32:22.942Z,13.48
2023-11-14T05:34:49.499Z,11.95
2023-11-14T05:37:16.336Z,10.38
2023-11-14T05:39:42.831Z,11.30
2023-11-14T05:42:09.499Z,11.90
2023-11-14T05:44:36.098Z,10.70
2023-11-14T05:47:03.194Z,9.77
2023-11-14T05:49:30.976Z,9.13
2023-11-14T05:51:57.528Z,10.55
2023-11-14T05:54:24.042Z,9.88
2023-11-14T05:56:50.555Z,13.38
2023-11-14T05:59:17.102Z,11.73
2023-11-14T06:01:45.142Z,9.27
2023-11-14T06:04:11.706Z,8.18
2023-11-14T06:06:38.237Z,13.63
2023-11-14T06:09:04.779Z,10.55
2023-11-14T06:11:31.282Z,10.02
2023-11-14T06:13:57.766Z,10.93
2023-11-14T06:16:27.125Z,7.85
2023-11-14T06:18:53.892Z,11.00
2023-11-14T06:21:20.402Z,11.73
2023-11-14T06:23:47.422Z,10.73
2023-11-14T06:26:14.818Z,9.90
2023-11-14T06:28:41.476Z,8.50
2023-11-14T06:31:07.967Z,8.88
2023-11-14T06:33:35.073Z,10.95
2023-11-14T06:36:01.672Z,10.98
2023-11-14T06:38:30.934Z,9.10
2023-11-14T06:40:59.922Z,10.63
2023-11-14T06:43:26.468Z,9.43
2023-11-14T06:45:53.046Z,9.73
2023-11-14T06:48:19.542Z,6.63
2023-11-14T06:50:47.661Z,10.48
2023-11-14T06:53:14.870Z,6.22
2023-11-14T06:55:41.918Z,5.65
2023-11-14T06:58:09.011Z,9.63
2023-11-14T07:00:36.647Z,7.00
2023-11-14T07:03:03.322Z,6.38
2023-11-14T07:05:31.723Z,8.20
2023-11-14T07:08:00.673Z,6.32
2023-11-14T07:10:27.685Z,7.82
2023-11-14T07:12:54.199Z,5.38
2023-11-14T07:15:22.221Z,5.25
2023-11-14T07:17:52.473Z,7.95
2023-11-14T07:20:22.225Z,6.50
2023-11-14T07:22:49.796Z,6.65
2023-11-14T07:25:16.852Z,7.60
2023-11-14T07:27:43.437Z,5.10
2023-11-14T07:30:11.214Z,5.28
2023-11-14T07:32:38.078Z,4.85
2023-11-14T07:35:04.881Z,8.00
2023-11-14T07:37:31.849Z,8.02
2023-11-14T07:39:58.422Z,6.55
2023-11-14T07:42:24.979Z,8.68
2023-11-14T07:44:51.629Z,6.13
2023-11-14T07:47:21.216Z,9.35
2023-11-14T07:49:48.368Z,8.00
2023-11-14T07:52:14.951Z,6.28
2023-11-14T07:54:41.485Z,8.48
2023-11-14T07:57:07.996Z,10.48
2023-11-14T07:59:34.536Z,7.65
2023-11-14T08:02:01.131Z,7.57
2023-11-14T08:04:27.836Z,10.77
2023-11-14T08:06:54.470Z,7.05
2023-11-14T08:09:21.707Z,8.50
2023-11-14T08:11:48.775Z,6.97
2023-11-14T08:14:16.252Z,5.95
2023-11-14T08:16:42.918Z,8.77
2023-11-14T08:19:09.581Z,6.20
2023-11-14T08:21:36.150Z,4.68
2023-11-14T08:24:02.700Z,6.53
2023-11-14T08:26:30.017Z,6.10
2023-11-14T08:28:56.727Z,8.98
2023-11-14T08:31:24.405Z,6.13
2023-11-14T08:33:51.026Z,8.18
2023-11-14T08:36:17.672Z,7.30
2023-11-14T08:38:44.481Z,6.78
2023-11-14T08:41:11.206Z,12.50
2023-11-14T08:43:38.293Z,8.38
2023-11-14T08:46:04.849Z,9.65
2023-11-14T08:48:31.580Z,6.05
2023-11-14T08:50:58.170Z,7.32
2023-11-14T08:53:24.781Z,10.80
2023-11-14T08:55:53.342Z,9.50
2023-11-14T08:58:20.671Z,8.02
2023-11-14T09:00:48.293Z,5.80
2023-11-14T09:03:14.882Z,8.50
2023-11-14T09:05:41.446Z,5.68
2023-11-14T09:08:08.041Z,6.82
2023-11-14T09:10:34.625Z,6.20
2023-11-14T09:13:01.121Z,6.38
2023-11-14T09:15:27.792Z,6.40
2023-11-14T09:17:56.668Z,5.72
2023-11-14T09:20:26.200Z,5.45
2023-11-14T09:22:54.166Z,5.15
2023-11-14T09:25:21.755Z,8.00
2023-11-14T09:27:48.313Z,5.40
2023-11-14T09:30:15.523Z,6.03
2023-11-14T09:32:42.477Z,5.97
2023-11-14T09:35:11.642Z,5.15
2023-11-14T09:37:38.564Z,4.50
2023-11-14T09:40:09.521Z,5.15
2023-11-14T09:42:36.854Z,4.28
2023-11-14T09:45:06.153Z,5.65
2023-11-14T09:47:32.890Z,5.53
2023-11-14T09:50:00.598Z,6.65
2023-11-14T09:52:27.547Z,5.10
2023-11-14T09:54:54.460Z,3.67
2023-11-14T09:57:22.269Z,4.18
2023-11-14T09:59:51.270Z,4.32
2023-11-14T10:02:17.882Z,4.28
2023-11-14T10:04:44.432Z,3.42
2023-11-14T10:07:18.793Z,4.78
2023-11-14T10:09:47.197Z,5.18
2023-11-14T10:12:21.298Z,6.88
2023-11-14T10:14:52.011Z,3.08
2023-11-14T10:17:20.376Z,6.32
2023-11-14T10:20:07.359Z,3.80
2023-11-14T10:22:36.341Z,6.43
2023-11-14T10:25:04.009Z,6.13
2023-11-14T10:27:38.159Z,2.88
2023-11-14T10:30:05.650Z,5.28
2023-11-14T10:32:32.504Z,4.53
2023-11-14T10:35:16.914Z,4.22
2023-11-14T10:37:43.570Z,3.67
2023-11-14T10:40:11.980Z,7.75
2023-11-14T10:42:38.833Z,3.53
2023-11-14T10:45:10.830Z,8.13
2023-11-14T10:50:06.144Z,6.28
2023-11-14T10:52:37.609Z,4.30
2023-11-14T10:55:06.783Z,4.28
2023-11-14T10:57:34.976Z,3.95
2023-11-14T11:00:01.967Z,4.85
2023-11-14T11:02:34.185Z,2.60
2023-11-14T11:05:04.313Z,2.67
2023-11-14T11:07:31.433Z,4.03
2023-11-14T11:09:58.067Z,4.25
2023-11-14T11:12:28.085Z,2.20
2023-11-14T11:14:55.041Z,4.57
2023-11-14T11:17:46.945Z,6.38
2023-11-14T11:20:24.484Z,4.80
2023-11-14T11:23:13.058Z,4.50
2023-11-14T11:25:46.199Z,4.22
2023-11-14T11:28:21.881Z,3.22
2023-11-14T11:31:07.434Z,3.10
2023-11-14T11:33:39.594Z,6.70
2023-11-14T11:36:36.565Z,4.88
2023-11-14T11:39:04.717Z,3.75
2023-11-14T11:41:35.731Z,3.85
2023-11-14T11:44:06.254Z,4.78
2023-11-14T11:46:41.156Z,3.72
2023-11-14T11:49:14.086Z,3.50
2023-11-14T11:51:50.846Z,6.95
2023-11-14T11:54:26.442Z,5.05
2023-11-14T11:57:06.184Z,5.80
2023-11-14T11:59:53.531Z,5.18
2023-11-14T12:02:25.195Z,6.03
2023-11-14T12:04:57.220Z,5.00
2023-11-14T12:07:24.602Z,3.53
2023-11-14T12:09:54.512Z,2.90
2023-11-14T12:12:21.152Z,6.00
2023-11-14T12:14:47.788Z,5.75
2023-11-14T12:17:15.181Z,2.63
2023-11-14T12:19:41.869Z,3.63
2023-11-14T12:22:09.118Z,4.07
2023-11-14T12:24:35.804Z,4.53
2023-11-14T12:27:02.443Z,3.35
2023-11-14T12:29:29.743Z,4.47
2023-11-14T12:31:57.083Z,3.38
2023-11-14T12:34:31.074Z,5.78
2023-11-14T12:37:09.218Z,3.55
2023-11-14T12:39:36.005Z,3.83
2023-11-14T12:42:02.777Z,4.88
2023-11-14T12:44:29.426Z,4.93
2023-11-14T12:46:56.212Z,6.28
2023-11-14T12:49:23.889Z,5.10
2023-11-14T12:51:53.375Z,3.17
2023-11-14T12:54:24.684Z,4.70
2023-11-14T12:56:52.690Z,4.75
2023-11-14T12:59:20.661Z,5.47
2023-11-14T13:01:50.225Z,4.75
2023-11-14T13:04:17.967Z,5.70
2023-11-14T13:06:47.107Z,5.63
2023-11-14T13:09:17.219Z,12.13
2023-11-14T13:11:44.341Z,4.85
2023-11-14T13:14:12.104Z,4.43
2023-11-14T13:16:40.006Z,5.60
2023-11-14T13:19:07.033Z,3.22
2023-11-14T13:21:34.726Z,5.30
2023-11-14T13:24:02.749Z,6.15
2023-11-14T13:26:29.753Z,3.70
2023-11-14T13:28:56.534Z,4.45
2023-11-14T13:31:23.301Z,6.05
2023-11-14T13:33:52.176Z,5.10
2023-11-14T13:36:21.301Z,5.40
2023-11-14T13:38:48.210Z,9.18
2023-11-14T13:41:16.901Z,6.40
2023-11-14T13:43:44.189Z,3.53
2023-11-14T13:46:20.940Z,3.38
2023-11-14T13:48:54.043Z,4.85
2023-11-14T13:51:20.868Z,4.20
2023-11-14T13:53:47.365Z,7.32
2023-11-14T13:56:14.046Z,6.10
2023-11-14T13:58:41.246Z,5.80
2023-11-14T14:01:10.367Z,6.38
2023-11-14T14:03:38.672Z,6.63
2023-11-14T14:06:10.584Z,5.53
2023-11-14T14:11:08.218Z,4.65
2023-11-14T14:13:35.786Z,6.70
2023-11-14T14:16:04.157Z,6.47
2023-11-14T14:18:32.753Z,2.88
2023-11-14T14:21:03.901Z,4.97
2023-11-14T14:23:31.407Z,5.57
2023-11-14T14:25:58.660Z,5.68
2023-11-14T14:28:31.018Z,3.40
2023-11-14T14:31:00.341Z,5.88
2023-11-14T14:33:26.936Z,4.30
2023-11-14T14:35:54.139Z,6.30
2023-11-14T14:38:23.788Z,4.88
2023-11-14T14:40:50.591Z,4.88
2023-11-14T14:43:17.599Z,6.88
2023-11-14T14:45:47.921Z,4.55
2023-11-14T14:48:14.909Z,5.47
2023-11-14T14:50:41.568Z,5.45
2023-11-14T14:53:11.302Z,5.05
2023-11-14T14:55:37.957Z,8.02
2023-11-14T14:58:07.609Z,6.45
2023-11-14T15:00:34.410Z,5.20
2023-11-14T15:03:02.335Z,9.05
2023-11-14T15:05:36.603Z,8.23
2023-11-14T15:08:04.966Z,3.97
2023-11-14T15:10:31.790Z,7.30
2023-11-14T15:13:00.304Z,6.82
2023-11-14T15:15:27.976Z,5.32
2023-11-14T15:17:58.008Z,6.35
2023-11-14T15:20:25.692Z,6.63
2023-11-14T15:22:53.124Z,6.60
2023-11-14T15:25:19.866Z,5.70
2023-11-14T15:27:46.647Z,6.05
2023-11-14T15:30:13.997Z,4.28
2023-11-14T15:32:41.057Z,4.68
2023-11-14T15:35:08.538Z,4.95
2023-11-14T15:37:36.383Z,5.70
2023-11-14T15:40:09.306Z,5.25
2023-11-14T15:42:36.205Z,5.25
2023-11-14T15:45:04.678Z,4.03
2023-11-14T15:47:31.474Z,4.63
2023-11-14T15:49:58.441Z,4.57
2023-11-14T15:52:25.013Z,6.85
2023-11-14T15:54:53.221Z,6.95
2023-11-14T15:57:21.520Z,4.13
2023-11-14T15:59:48.610Z,3.30
2023-11-14T16:02:15.198Z,4.35
2023-11-14T16:04:41.987Z,5.40
2023-11-14T16:07:09.226Z,6.47
2023-11-14T16:09:36.603Z,4.45
2023-11-14T16:12:03.561Z,5.03
2023-11-14T16:14:30.967Z,4.32
2023-11-14T16:16:57.600Z,4.20
2023-11-14T16:19:24.118Z,5.95
2023-11-14T16:21:50.587Z,5.78
2023-11-14T16:24:17.126Z,3.25
2023-11-14T16:26:43.657Z,4.28
2023-11-14T16:29:10.274Z,4.88
2023-11-14T16:31:38.508Z,5.68
2023-11-14T16:34:06.328Z,6.60
2023-11-14T16:36:33.086Z,4.72
2023-11-14T16:38:59.730Z,5.57
2023-11-14T16:41:26.438Z,4.85
2023-11-14T16:43:55.096Z,4.90
2023-11-14T16:46:21.922Z,3.90
2023-11-14T16:48:48.704Z,3.58
2023-11-14T16:51:22.468Z,7.40
2023-11-14T16:53:49.632Z,4.30
2023-11-14T16:56:16.781Z,12.15
2023-11-14T16:58:43.474Z,4.47
2023-11-14T17:01:10.052Z,4.90
2023-11-14T17:03:36.665Z,4.18
2023-11-14T17:06:03.400Z,6.10
2023-11-14T17:08:31.217Z,6.07
2023-11-14T17:10:57.951Z,7.50
2023-11-14T17:13:25.893Z,8.00
2023-11-14T17:15:54.144Z,5.45
2023-11-14T17:18:20.771Z,4.10
2023-11-14T17:20:47.516Z,5.22
2023-11-14T17:23:14.193Z,3.67
2023-11-14T17:25:41.021Z,4.18
2023-11-14T17:28:07.524Z,3.72
2023-11-14T17:30:34.648Z,5.25
2023-11-14T17:33:01.335Z,4.45
2023-11-14T17:35:27.915Z,4.25
2023-11-14T17:37:54.452Z,3.08
2023-11-14T17:40:20.946Z,4.47
2023-11-14T17:42:47.428Z,10.75
2023-11-14T17:45:14.024Z,4.03
2023-11-14T17:47:40.629Z,6.70
2023-11-14T17:50:09.412Z,5.35
2023-11-14T17:52:36.374Z,5.55
2023-11-14T17:55:03.194Z,6.03
2023-11-14T17:57:29.943Z,4.90
2023-11-14T17:59:56.831Z,5.78
2023-11-14T18:02:23.406Z,5.10
2023-11-14T18:04:50.295Z,3.40
2023-11-14T18:07:16.784Z,3.55
2023-11-14T18:09:43.708Z,5.72
2023-11-14T18:12:10.209Z,5.30
2023-11-14T18:14:36.886Z,5.68
2023-11-14T18:17:04.839Z,5.60
2023-11-14T18:19:31.482Z,4.63
2023-11-14T18:21:59.369Z,5.78
2023-11-14T18:24:26.709Z,6.72
2023-11-14T18:26:55.025Z,5.75
2023-11-14T18:29:21.642Z,7.50
2023-11-14T18:31:49.032Z,5.97
2023-11-14T18:34:15.977Z,4.18
2023-11-14T18:36:42.534Z,3.20
2023-11-14T18:39:09.063Z,3.28
2023-11-14T18:41:35.682Z,4.85
2023-11-14T18:44:02.288Z,3.88
2023-11-14T18:46:29.766Z,3.53
2023-11-14T18:48:56.771Z,3.47
2023-11-14T18:51:23.328Z,3.15
2023-11-14T18:53:49.990Z,3.08
2023-11-14T18:56:16.648Z,5.13
2023-11-14T18:58:43.742Z,3.90
2023-11-14T19:01:11.270Z,4.53
2023-11-14T19:03:37.988Z,4.85
2023-11-14T19:06:05.327Z,4.57
2023-11-14T19:08:32.460Z,5.28
2023-11-14T19:10:59.103Z,4.03
2023-11-14T19:13:25.724Z,5.22
2023-11-14T19:15:52.325Z,5.97
2023-11-14T19:18:19.588Z,5.75
2023-11-14T19:21:10.108Z,6.15
2023-11-14T19:23:42.540Z,3.15
2023-11-14T19:28:39.391Z,4.63
2023-11-14T19:31:05.959Z,6.35
2023-11-14T19:33:33.493Z,7.60
2023-11-14T19:35:59.986Z,7.50
2023-11-14T19:38:26.550Z,7.20
2023-11-14T19:40:53.121Z,8.35
2023-11-14T19:43:19.847Z,4.53
2023-11-14T19:45:46.509Z,7.35
2023-11-14T19:48:13.177Z,5.78
2023-11-14T19:50:39.804Z,5.93
2023-11-14T19:53:06.383Z,4.53
2023-11-14T19:55:33.719Z,4.18
2023-11-14T19:58:00.350Z,3.90
2023-11-14T20:00:26.945Z,4.13
2023-11-14T20:02:53.638Z,4.82
2023-11-14T20:05:20.441Z,6.47
2023-11-14T20:07:47.014Z,3.92
2023-11-14T20:10:14.836Z,4.00
2023-11-14T20:12:44.455Z,3.95
2023-11-14T20:15:14.239Z,3.20
2023-11-14T20:17:42.838Z,4.45
2023-11-14T20:20:12.801Z,3.55
2023-11-14T20:22:39.841Z,4.50
2023-11-14T20:25:06.760Z,3.58
2023-11-14T20:27:34.939Z,3.97
2023-11-14T20:30:02.343Z,4.43
2023-11-14T20:32:29.037Z,5.90
2023-11-14T20:34:55.978Z,6.00
2023-11-14T20:37:22.814Z,4.63
2023-11-14T20:39:49.477Z,4.28
2023-11-14T20:42:16.133Z,3.55
2023-11-14T20:44:45.219Z,7.70
2023-11-14T20:47:12.662Z,4.43
2023-11-14T20:49:39.292Z,5.78
2023-11-14T20:52:08.963Z,4.65
2023-11-14T20:54:35.883Z,6.07
2023-11-14T20:57:02.984Z,5.47
2023-11-14T20:59:29.564Z,6.57
2023-11-14T21:01:57.033Z,5.53
2023-11-14T21:04:23.856Z,8.55
2023-11-14T21:06:50.658Z,5.72
2023-11-14T21:09:18.210Z,5.95
2023-11-14T21:11:45.432Z,5.38
2023-11-14T21:14:12.038Z,3.63
2023-11-14T21:16:39.504Z,3.78
2023-11-14T21:19:06.119Z,4.32
2023-11-14T21:21:32.761Z,8.25
2023-11-14T21:23:59.975Z,6.70
2023-11-14T21:26:28.911Z,4.53
2023-11-14T21:28:55.481Z,5.45
2023-11-14T21:31:22.128Z,4.80
2023-11-14T21:33:50.263Z,6.22
2023-11-14T21:36:16.947Z,4.70
2023-11-14T21:38:43.540Z,9.00
2023-11-14T21:41:10.092Z,6.50
2023-11-14T21:43:36.751Z,5.65
2023-11-14T21:46:03.512Z,9.70
2023-11-14T21:48:30.074Z,6.13
2023-11-14T21:50:56.970Z,5.72
2023-11-14T21:53:23.834Z,6.68
2023-11-14T21:55:50.412Z,5.82
2023-11-14T21:58:17.094Z,6.50
2023-11-14T22:00:43.788Z,7.80
2023-11-14T22:03:10.677Z,6.45
2023-11-14T22:05:37.365Z,4.93
2023-11-14T22:08:04.066Z,5.57
2023-11-14T22:10:31.136Z,6.45
2023-11-14T22:12:57.889Z,6.35
2023-11-14T22:15:24.490Z,6.07
2023-11-14T22:17:51.042Z,4.93
2023-11-14T22:20:17.871Z,4.22
2023-11-14T22:22:44.422Z,6.00
2023-11-14T22:25:10.932Z,4.85
2023-11-14T22:27:37.550Z,3.20
2023-11-14T22:30:05.564Z,5.05
2023-11-14T22:32:32.733Z,3.80
2023-11-14T22:35:01.279Z,3.70
2023-11-14T22:37:29.289Z,4.45
2023-11-14T22:39:55.921Z,3.97
2023-11-14T22:42:22.704Z,4.00
2023-11-14T22:44:49.319Z,3.45
2023-11-14T22:47:16.114Z,3.83
2023-11-14T22:49:44.509Z,4.50
2023-11-14T22:52:11.525Z,6.38
2023-11-14T22:54:38.117Z,4.22
2023-11-14T22:57:05.037Z,5.00
2023-11-14T22:59:31.605Z,4.50
2023-11-14T23:01:59.957Z,3.90
2023-11-14T23:04:26.616Z,7.47
2023-11-14T23:06:55.517Z,3.17
2023-11-14T23:09:24.288Z,6.18
2023-11-14T23:11:55.086Z,3.15
2023-11-14T23:14:21.785Z,4.90
2023-11-14T23:16:50.104Z,3.60
2023-11-14T23:19:17.649Z,4.45
2023-11-14T23:21:49.244Z,3.90
2023-11-14T23:24:21.907Z,6.75
2023-11-14T23:26:48.638Z,4.65
2023-11-14T23:29:15.208Z,7.53
2023-11-14T23:31:41.804Z,4.47
2023-11-14T23:34:08.295Z,7.07
2023-11-14T23:36:34.766Z,5.60
2023-11-14T23:39:01.340Z,6.60
2023-11-14T23:41:28.914Z,7.20
2023-11-14T23:43:56.334Z,4.05
2023-11-14T23:46:24.316Z,8.25
2023-11-14T23:48:51.875Z,6.60
2023-11-14T23:51:19.199Z,9.05
2023-11-14T23:53:46.025Z,4.90
2023-11-14T23:56:13.734Z,7.05
2023-11-14T23:58:40.434Z,5.72
